sensor_id;sensor_type;location;lat;lon;timestamp;P1;durP1;ratioP1;P2;durP2;ratioP2
4646;SDS011;2336;47.822;7.564;2022-09-12T00:01:08;3.10;;;2.17;;
4646;SDS011;2336;47.822;7.564;2022-09-12T00:03:37;2.40;;;2.30;;
4646;SDS011;2336;47.822;7.564;2022-09-12T00:06:08;1.90;;;1.90;;
4646;SDS011;2336;47.822;7.564;2022-09-12T00:08:37;3.00;;;2.70;;
4646;SDS011;2336;47.822;7.564;2022-09-12T00:11:04;2.40;;;2.30;;
4646;SDS011;2336;47.822;7.564;2022-09-12T00:13:33;2.40;;;2.30;;
4646;SDS011;2336;47.822;7.564;2022-09-12T00:16:00;2.20;;;2.20;;
4646;SDS011;2336;47.822;7.564;2022-09-12T00:18:29;2.90;;;2.80;;
4646;SDS011;2336;47.822;7.564;2022-09-12T00:21:00;2.73;;;2.63;;
4646;SDS011;2336;47.822;7.564;2022-09-12T00:23:27;2.37;;;2.10;;
4646;SDS011;2336;47.822;7.564;2022-09-12T00:25:54;4.83;;;2.27;;
4646;SDS011;2336;47.822;7.564;2022-09-12T00:28:21;2.57;;;2.37;;
4646;SDS011;2336;47.822;7.564;2022-09-12T00:30:48;3.30;;;3.10;;
4646;SDS011;2336;47.822;7.564;2022-09-12T00:33:15;3.23;;;3.10;;
4646;SDS011;2336;47.822;7.564;2022-09-12T00:35:45;2.40;;;2.30;;
4646;SDS011;2336;47.822;7.564;2022-09-12T00:38:14;2.50;;;2.40;;
4646;SDS011;2336;47.822;7.564;2022-09-12T00:40:42;2.60;;;2.50;;
4646;SDS011;2336;47.822;7.564;2022-09-12T00:43:11;2.40;;;2.30;;
4646;SDS011;2336;47.822;7.564;2022-09-12T00:45:39;5.30;;;2.70;;
4646;SDS011;2336;47.822;7.564;2022-09-12T00:48:07;2.30;;;2.30;;
4646;SDS011;2336;47.822;7.564;2022-09-12T00:50:44;2.47;;;2.37;;
4646;SDS011;2336;47.822;7.564;2022-09-12T00:53:11;2.40;;;2.30;;
4646;SDS011;2336;47.822;7.564;2022-09-12T00:55:39;2.67;;;2.57;;
4646;SDS011;2336;47.822;7.564;2022-09-12T00:58:09;2.17;;;2.07;;
4646;SDS011;2336;47.822;7.564;2022-09-12T01:00:39;2.60;;;2.50;;
4646;SDS011;2336;47.822;7.564;2022-09-12T01:03:08;3.00;;;2.50;;
4646;SDS011;2336;47.822;7.564;2022-09-12T01:05:39;2.57;;;2.47;;
4646;SDS011;2336;47.822;7.564;2022-09-12T01:08:10;2.83;;;2.73;;
4646;SDS011;2336;47.822;7.564;2022-09-12T01:10:38;3.60;;;3.30;;
4646;SDS011;2336;47.822;7.564;2022-09-12T01:13:07;2.23;;;2.23;;
4646;SDS011;2336;47.822;7.564;2022-09-12T01:15:35;2.63;;;2.43;;
4646;SDS011;2336;47.822;7.564;2022-09-12T01:18:07;2.63;;;2.53;;
4646;SDS011;2336;47.822;7.564;2022-09-12T01:20:46;2.07;;;1.90;;
4646;SDS011;2336;47.822;7.564;2022-09-12T01:29:52;2.50;;;2.40;;
4646;SDS011;2336;47.822;7.564;2022-09-12T01:32:32;2.70;;;2.60;;
4646;SDS011;2336;47.822;7.564;2022-09-12T01:35:11;2.50;;;2.40;;
4646;SDS011;2336;47.822;7.564;2022-09-12T01:37:46;2.70;;;2.60;;
4646;SDS011;2336;47.822;7.564;2022-09-12T01:40:19;2.70;;;2.60;;
4646;SDS011;2336;47.822;7.564;2022-09-12T01:42:53;2.20;;;2.10;;
4646;SDS011;2336;47.822;7.564;2022-09-12T01:45:29;2.60;;;2.50;;
4646;SDS011;2336;47.822;7.564;2022-09-12T01:48:01;2.00;;;2.00;;
4646;SDS011;2336;47.822;7.564;2022-09-12T01:50:39;2.00;;;2.00;;
4646;SDS011;2336;47.822;7.564;2022-09-12T01:53:18;2.27;;;2.07;;
4646;SDS011;2336;47.822;7.564;2022-09-12T01:55:49;2.30;;;2.20;;
4646;SDS011;2336;47.822;7.564;2022-09-12T01:58:20;2.10;;;2.10;;
4646;SDS011;2336;47.822;7.564;2022-09-12T02:00:53;2.23;;;2.00;;
4646;SDS011;2336;47.822;7.564;2022-09-12T02:03:33;2.60;;;2.50;;
4646;SDS011;2336;47.822;7.564;2022-09-12T02:06:06;2.30;;;2.20;;
4646;SDS011;2336;47.822;7.564;2022-09-12T02:08:41;2.03;;;2.03;;
4646;SDS011;2336;47.822;7.564;2022-09-12T02:11:11;2.03;;;1.90;;
4646;SDS011;2336;47.822;7.564;2022-09-12T02:13:39;2.40;;;2.10;;
4646;SDS011;2336;47.822;7.564;2022-09-12T02:16:09;2.10;;;2.00;;
4646;SDS011;2336;47.822;7.564;2022-09-12T02:18:42;2.33;;;2.23;;
4646;SDS011;2336;47.822;7.564;2022-09-12T02:21:12;2.50;;;2.40;;
4646;SDS011;2336;47.822;7.564;2022-09-12T02:23:40;2.43;;;2.33;;
4646;SDS011;2336;47.822;7.564;2022-09-12T02:26:14;2.50;;;2.40;;
4646;SDS011;2336;47.822;7.564;2022-09-12T02:28:45;2.90;;;2.60;;
4646;SDS011;2336;47.822;7.564;2022-09-12T02:31:13;3.30;;;3.00;;
4646;SDS011;2336;47.822;7.564;2022-09-12T02:33:49;2.53;;;2.33;;
4646;SDS011;2336;47.822;7.564;2022-09-12T02:36:30;2.93;;;2.80;;
4646;SDS011;2336;47.822;7.564;2022-09-12T02:39:04;3.03;;;2.77;;
4646;SDS011;2336;47.822;7.564;2022-09-12T02:41:31;2.80;;;2.60;;
4646;SDS011;2336;47.822;7.564;2022-09-12T02:43:58;2.90;;;2.80;;
4646;SDS011;2336;47.822;7.564;2022-09-12T02:46:25;2.67;;;2.47;;
4646;SDS011;2336;47.822;7.564;2022-09-12T02:48:57;2.80;;;2.70;;
4646;SDS011;2336;47.822;7.564;2022-09-12T02:51:24;6.17;;;2.40;;
4646;SDS011;2336;47.822;7.564;2022-09-12T02:53:52;3.00;;;2.80;;
4646;SDS011;2336;47.822;7.564;2022-09-12T02:56:21;2.70;;;2.60;;
4646;SDS011;2336;47.822;7.564;2022-09-12T02:58:53;2.67;;;2.47;;
4646;SDS011;2336;47.822;7.564;2022-09-12T03:01:26;2.37;;;2.27;;
4646;SDS011;2336;47.822;7.564;2022-09-12T03:04:09;2.17;;;2.07;;
4646;SDS011;2336;47.822;7.564;2022-09-12T03:06:53;2.07;;;2.07;;
4646;SDS011;2336;47.822;7.564;2022-09-12T03:09:33;2.93;;;2.23;;
4646;SDS011;2336;47.822;7.564;2022-09-12T03:12:19;2.80;;;2.70;;
4646;SDS011;2336;47.822;7.564;2022-09-12T03:14:59;2.37;;;2.27;;
4646;SDS011;2336;47.822;7.564;2022-09-12T03:17:43;2.20;;;2.20;;
4646;SDS011;2336;47.822;7.564;2022-09-12T03:20:23;2.63;;;2.57;;
4646;SDS011;2336;47.822;7.564;2022-09-12T03:23:01;2.53;;;2.50;;
4646;SDS011;2336;47.822;7.564;2022-09-12T03:25:31;2.63;;;2.53;;
4646;SDS011;2336;47.822;7.564;2022-09-12T03:28:02;2.83;;;2.63;;
4646;SDS011;2336;47.822;7.564;2022-09-12T03:30:36;2.60;;;2.50;;
4646;SDS011;2336;47.822;7.564;2022-09-12T03:33:03;2.70;;;2.60;;
4646;SDS011;2336;47.822;7.564;2022-09-12T03:35:31;2.33;;;2.23;;
4646;SDS011;2336;47.822;7.564;2022-09-12T03:37:58;2.67;;;2.53;;
4646;SDS011;2336;47.822;7.564;2022-09-12T03:40:25;2.30;;;2.30;;
4646;SDS011;2336;47.822;7.564;2022-09-12T03:42:51;2.70;;;2.60;;
4646;SDS011;2336;47.822;7.564;2022-09-12T03:45:18;2.67;;;2.57;;
4646;SDS011;2336;47.822;7.564;2022-09-12T03:47:45;2.97;;;2.73;;
4646;SDS011;2336;47.822;7.564;2022-09-12T03:50:12;2.63;;;2.43;;
4646;SDS011;2336;47.822;7.564;2022-09-12T03:52:40;3.03;;;2.90;;
4646;SDS011;2336;47.822;7.564;2022-09-12T03:55:07;2.83;;;2.73;;
4646;SDS011;2336;47.822;7.564;2022-09-12T03:57:35;2.07;;;2.07;;
4646;SDS011;2336;47.822;7.564;2022-09-12T04:00:02;2.60;;;2.50;;
4646;SDS011;2336;47.822;7.564;2022-09-12T04:02:30;2.50;;;2.40;;
4646;SDS011;2336;47.822;7.564;2022-09-12T04:04:57;2.80;;;2.70;;
4646;SDS011;2336;47.822;7.564;2022-09-12T04:07:24;2.80;;;2.70;;
4646;SDS011;2336;47.822;7.564;2022-09-12T04:09:52;3.43;;;3.13;;
4646;SDS011;2336;47.822;7.564;2022-09-12T04:12:20;3.00;;;2.63;;
4646;SDS011;2336;47.822;7.564;2022-09-12T04:14:48;3.37;;;3.10;;
4646;SDS011;2336;47.822;7.564;2022-09-12T04:17:15;3.13;;;2.97;;
4646;SDS011;2336;47.822;7.564;2022-09-12T04:19:42;3.10;;;2.90;;
4646;SDS011;2336;47.822;7.564;2022-09-12T04:22:09;3.03;;;2.93;;
4646;SDS011;2336;47.822;7.564;2022-09-12T04:24:36;3.20;;;3.10;;
4646;SDS011;2336;47.822;7.564;2022-09-12T04:27:05;3.30;;;3.10;;
4646;SDS011;2336;47.822;7.564;2022-09-12T04:29:32;3.30;;;3.20;;
4646;SDS011;2336;47.822;7.564;2022-09-12T04:31:59;3.80;;;3.60;;
4646;SDS011;2336;47.822;7.564;2022-09-12T04:34:28;3.77;;;3.60;;
4646;SDS011;2336;47.822;7.564;2022-09-12T04:36:56;4.27;;;3.87;;
4646;SDS011;2336;47.822;7.564;2022-09-12T04:39:23;3.70;;;3.60;;
4646;SDS011;2336;47.822;7.564;2022-09-12T04:41:49;4.43;;;4.07;;
4646;SDS011;2336;47.822;7.564;2022-09-12T04:44:18;4.50;;;4.17;;
4646;SDS011;2336;47.822;7.564;2022-09-12T04:46:45;9.07;;;5.40;;
4646;SDS011;2336;47.822;7.564;2022-09-12T04:49:12;5.17;;;4.73;;
4646;SDS011;2336;47.822;7.564;2022-09-12T04:51:43;4.63;;;4.33;;
4646;SDS011;2336;47.822;7.564;2022-09-12T04:54:11;4.03;;;3.93;;
4646;SDS011;2336;47.822;7.564;2022-09-12T04:56:41;4.00;;;3.80;;
4646;SDS011;2336;47.822;7.564;2022-09-12T04:59:09;5.23;;;3.90;;
4646;SDS011;2336;47.822;7.564;2022-09-12T05:01:38;4.10;;;3.90;;
4646;SDS011;2336;47.822;7.564;2022-09-12T05:04:05;4.73;;;4.43;;
4646;SDS011;2336;47.822;7.564;2022-09-12T05:06:33;3.63;;;3.43;;
4646;SDS011;2336;47.822;7.564;2022-09-12T05:09:02;4.10;;;3.80;;
4646;SDS011;2336;47.822;7.564;2022-09-12T05:11:31;5.67;;;4.03;;
4646;SDS011;2336;47.822;7.564;2022-09-12T05:13:59;4.20;;;3.90;;
4646;SDS011;2336;47.822;7.564;2022-09-12T05:16:26;4.17;;;4.00;;
4646;SDS011;2336;47.822;7.564;2022-09-12T05:18:56;4.57;;;4.30;;
4646;SDS011;2336;47.822;7.564;2022-09-12T05:21:25;4.63;;;4.30;;
4646;SDS011;2336;47.822;7.564;2022-09-12T05:23:52;4.77;;;4.13;;
4646;SDS011;2336;47.822;7.564;2022-09-12T05:26:21;7.67;;;4.60;;
4646;SDS011;2336;47.822;7.564;2022-09-12T05:28:48;12.50;;;5.50;;
4646;SDS011;2336;47.822;7.564;2022-09-12T05:31:17;5.70;;;5.20;;
4646;SDS011;2336;47.822;7.564;2022-09-12T05:33:45;7.87;;;4.70;;
4646;SDS011;2336;47.822;7.564;2022-09-12T05:36:15;4.90;;;4.53;;
4646;SDS011;2336;47.822;7.564;2022-09-12T05:38:43;4.70;;;4.43;;
4646;SDS011;2336;47.822;7.564;2022-09-12T05:41:14;5.20;;;4.70;;
4646;SDS011;2336;47.822;7.564;2022-09-12T05:43:42;4.93;;;4.53;;
4646;SDS011;2336;47.822;7.564;2022-09-12T05:46:11;5.53;;;5.03;;
4646;SDS011;2336;47.822;7.564;2022-09-12T05:48:40;5.20;;;4.90;;
4646;SDS011;2336;47.822;7.564;2022-09-12T05:51:08;5.20;;;4.90;;
4646;SDS011;2336;47.822;7.564;2022-09-12T05:53:39;5.20;;;4.77;;
4646;SDS011;2336;47.822;7.564;2022-09-12T05:56:07;8.47;;;7.60;;
4646;SDS011;2336;47.822;7.564;2022-09-12T05:58:36;9.50;;;7.70;;
4646;SDS011;2336;47.822;7.564;2022-09-12T06:01:04;7.30;;;6.80;;
4646;SDS011;2336;47.822;7.564;2022-09-12T06:03:32;9.37;;;7.60;;
4646;SDS011;2336;47.822;7.564;2022-09-12T06:06:03;13.03;;;6.20;;
4646;SDS011;2336;47.822;7.564;2022-09-12T06:08:30;7.87;;;6.00;;
4646;SDS011;2336;47.822;7.564;2022-09-12T06:11:00;9.23;;;6.80;;
4646;SDS011;2336;47.822;7.564;2022-09-12T06:13:27;10.93;;;6.77;;
4646;SDS011;2336;47.822;7.564;2022-09-12T06:16:00;6.93;;;6.33;;
4646;SDS011;2336;47.822;7.564;2022-09-12T06:18:28;7.20;;;6.57;;
4646;SDS011;2336;47.822;7.564;2022-09-12T06:20:55;6.53;;;5.97;;
4646;SDS011;2336;47.822;7.564;2022-09-12T06:23:21;9.43;;;5.37;;
4646;SDS011;2336;47.822;7.564;2022-09-12T06:25:50;5.23;;;4.83;;
4646;SDS011;2336;47.822;7.564;2022-09-12T06:28:19;5.47;;;5.00;;
4646;SDS011;2336;47.822;7.564;2022-09-12T06:30:45;5.23;;;4.83;;
4646;SDS011;2336;47.822;7.564;2022-09-12T06:33:12;4.60;;;4.30;;
4646;SDS011;2336;47.822;7.564;2022-09-12T06:35:39;4.73;;;4.40;;
4646;SDS011;2336;47.822;7.564;2022-09-12T06:38:06;4.17;;;3.97;;
4646;SDS011;2336;47.822;7.564;2022-09-12T06:40:33;8.00;;;4.80;;
4646;SDS011;2336;47.822;7.564;2022-09-12T06:43:00;4.80;;;4.47;;
4646;SDS011;2336;47.822;7.564;2022-09-12T06:45:28;4.40;;;4.10;;
4646;SDS011;2336;47.822;7.564;2022-09-12T06:47:55;5.87;;;4.80;;
4646;SDS011;2336;47.822;7.564;2022-09-12T06:50:22;8.10;;;5.30;;
4646;SDS011;2336;47.822;7.564;2022-09-12T06:52:49;8.43;;;6.30;;
4646;SDS011;2336;47.822;7.564;2022-09-12T06:55:16;21.37;;;9.37;;
4646;SDS011;2336;47.822;7.564;2022-09-12T06:57:42;27.83;;;12.03;;
4646;SDS011;2336;47.822;7.564;2022-09-12T07:00:10;26.30;;;10.07;;
4646;SDS011;2336;47.822;7.564;2022-09-12T07:02:39;25.43;;;11.03;;
4646;SDS011;2336;47.822;7.564;2022-09-12T07:05:06;19.47;;;10.00;;
4646;SDS011;2336;47.822;7.564;2022-09-12T07:07:43;14.97;;;9.23;;
4646;SDS011;2336;47.822;7.564;2022-09-12T07:10:09;15.80;;;9.20;;
4646;SDS011;2336;47.822;7.564;2022-09-12T07:12:36;14.00;;;8.40;;
4646;SDS011;2336;47.822;7.564;2022-09-12T07:15:03;14.00;;;7.90;;
4646;SDS011;2336;47.822;7.564;2022-09-12T07:17:31;16.70;;;8.67;;
4646;SDS011;2336;47.822;7.564;2022-09-12T07:19:59;16.50;;;8.87;;
4646;SDS011;2336;47.822;7.564;2022-09-12T07:22:26;13.10;;;8.60;;
4646;SDS011;2336;47.822;7.564;2022-09-12T07:24:52;13.23;;;8.27;;
4646;SDS011;2336;47.822;7.564;2022-09-12T07:27:19;14.07;;;7.20;;
4646;SDS011;2336;47.822;7.564;2022-09-12T07:29:46;9.53;;;6.53;;
4646;SDS011;2336;47.822;7.564;2022-09-12T07:32:13;12.33;;;8.30;;
4646;SDS011;2336;47.822;7.564;2022-09-12T07:34:40;11.50;;;8.10;;
4646;SDS011;2336;47.822;7.564;2022-09-12T07:37:08;9.63;;;7.77;;
4646;SDS011;2336;47.822;7.564;2022-09-12T07:39:34;11.40;;;8.20;;
4646;SDS011;2336;47.822;7.564;2022-09-12T07:42:01;11.20;;;8.40;;
4646;SDS011;2336;47.822;7.564;2022-09-12T07:44:28;9.30;;;7.20;;
4646;SDS011;2336;47.822;7.564;2022-09-12T07:46:55;7.63;;;7.03;;
4646;SDS011;2336;47.822;7.564;2022-09-12T07:49:22;9.13;;;7.70;;
4646;SDS011;2336;47.822;7.564;2022-09-12T07:51:49;8.03;;;7.33;;
4646;SDS011;2336;47.822;7.564;2022-09-12T07:54:17;7.70;;;7.07;;
4646;SDS011;2336;47.822;7.564;2022-09-12T07:56:44;6.70;;;6.20;;
4646;SDS011;2336;47.822;7.564;2022-09-12T07:59:10;7.40;;;6.90;;
4646;SDS011;2336;47.822;7.564;2022-09-12T08:01:37;8.30;;;7.60;;
4646;SDS011;2336;47.822;7.564;2022-09-12T08:04:05;10.50;;;9.50;;
4646;SDS011;2336;47.822;7.564;2022-09-12T08:06:32;8.00;;;7.30;;
4646;SDS011;2336;47.822;7.564;2022-09-12T08:09:00;8.33;;;7.73;;
4646;SDS011;2336;47.822;7.564;2022-09-12T08:11:28;8.77;;;8.00;;
4646;SDS011;2336;47.822;7.564;2022-09-12T08:13:55;9.33;;;8.53;;
4646;SDS011;2336;47.822;7.564;2022-09-12T08:16:23;7.80;;;6.97;;
4646;SDS011;2336;47.822;7.564;2022-09-12T08:18:51;7.60;;;7.00;;
4646;SDS011;2336;47.822;7.564;2022-09-12T08:21:19;8.60;;;8.00;;
4646;SDS011;2336;47.822;7.564;2022-09-12T08:23:50;8.73;;;8.03;;
4646;SDS011;2336;47.822;7.564;2022-09-12T08:26:18;9.20;;;8.60;;
4646;SDS011;2336;47.822;7.564;2022-09-12T08:28:46;8.93;;;8.23;;
4646;SDS011;2336;47.822;7.564;2022-09-12T08:31:14;7.60;;;7.10;;
4646;SDS011;2336;47.822;7.564;2022-09-12T08:33:42;9.10;;;8.40;;
4646;SDS011;2336;47.822;7.564;2022-09-12T08:36:10;8.63;;;7.97;;
4646;SDS011;2336;47.822;7.564;2022-09-12T08:38:38;8.47;;;7.67;;
4646;SDS011;2336;47.822;7.564;2022-09-12T08:41:08;8.70;;;8.00;;
4646;SDS011;2336;47.822;7.564;2022-09-12T08:43:54;8.77;;;8.00;;
4646;SDS011;2336;47.822;7.564;2022-09-12T08:46:43;7.37;;;6.87;;
4646;SDS011;2336;47.822;7.564;2022-09-12T08:49:22;8.63;;;5.87;;
4646;SDS011;2336;47.822;7.564;2022-09-12T08:51:54;7.20;;;6.60;;
4646;SDS011;2336;47.822;7.564;2022-09-12T08:54:24;6.10;;;5.60;;
4646;SDS011;2336;47.822;7.564;2022-09-12T08:56:57;7.50;;;6.80;;
4646;SDS011;2336;47.822;7.564;2022-09-12T08:59:29;6.00;;;5.60;;
4646;SDS011;2336;47.822;7.564;2022-09-12T09:02:02;6.60;;;6.10;;
4646;SDS011;2336;47.822;7.564;2022-09-12T09:04:42;6.40;;;5.80;;
4646;SDS011;2336;47.822;7.564;2022-09-12T09:07:27;6.20;;;5.73;;
4646;SDS011;2336;47.822;7.564;2022-09-12T09:10:07;5.80;;;5.40;;
4646;SDS011;2336;47.822;7.564;2022-09-12T09:12:45;5.77;;;5.20;;
4646;SDS011;2336;47.822;7.564;2022-09-12T09:15:29;5.70;;;5.20;;
4646;SDS011;2336;47.822;7.564;2022-09-12T09:18:08;10.33;;;5.10;;
4646;SDS011;2336;47.822;7.564;2022-09-12T09:20:42;5.17;;;4.87;;
4646;SDS011;2336;47.822;7.564;2022-09-12T09:23:18;5.43;;;5.03;;
4646;SDS011;2336;47.822;7.564;2022-09-12T09:25:52;8.30;;;5.10;;
4646;SDS011;2336;47.822;7.564;2022-09-12T09:28:34;5.63;;;5.00;;
4646;SDS011;2336;47.822;7.564;2022-09-12T09:31:10;4.00;;;3.90;;
4646;SDS011;2336;47.822;7.564;2022-09-12T09:33:41;4.17;;;3.87;;
4646;SDS011;2336;47.822;7.564;2022-09-12T09:36:14;5.00;;;4.70;;
4646;SDS011;2336;47.822;7.564;2022-09-12T09:38:47;5.97;;;4.30;;
4646;SDS011;2336;47.822;7.564;2022-09-12T09:41:27;4.57;;;4.23;;
4646;SDS011;2336;47.822;7.564;2022-09-12T09:44:08;4.27;;;4.07;;
4646;SDS011;2336;47.822;7.564;2022-09-12T09:46:37;4.23;;;4.03;;
4646;SDS011;2336;47.822;7.564;2022-09-12T09:49:05;3.90;;;3.80;;
4646;SDS011;2336;47.822;7.564;2022-09-12T09:51:37;4.13;;;3.90;;
4646;SDS011;2336;47.822;7.564;2022-09-12T09:54:09;6.53;;;3.80;;
4646;SDS011;2336;47.822;7.564;2022-09-12T09:56:42;4.03;;;3.90;;
4646;SDS011;2336;47.822;7.564;2022-09-12T09:59:10;4.27;;;4.07;;
4646;SDS011;2336;47.822;7.564;2022-09-12T10:01:43;3.83;;;3.60;;
4646;SDS011;2336;47.822;7.564;2022-09-12T10:04:18;4.23;;;3.33;;
4646;SDS011;2336;47.822;7.564;2022-09-12T10:06:49;3.23;;;3.13;;
4646;SDS011;2336;47.822;7.564;2022-09-12T10:09:18;3.10;;;3.00;;
4646;SDS011;2336;47.822;7.564;2022-09-12T10:11:47;3.70;;;3.40;;
4646;SDS011;2336;47.822;7.564;2022-09-12T10:14:32;3.00;;;2.83;;
4646;SDS011;2336;47.822;7.564;2022-09-12T10:17:22;3.27;;;3.17;;
4646;SDS011;2336;47.822;7.564;2022-09-12T10:19:52;2.50;;;2.40;;
4646;SDS011;2336;47.822;7.564;2022-09-12T10:22:20;3.17;;;2.87;;
4646;SDS011;2336;47.822;7.564;2022-09-12T10:24:50;2.70;;;2.60;;
4646;SDS011;2336;47.822;7.564;2022-09-12T10:27:19;3.43;;;3.23;;
4646;SDS011;2336;47.822;7.564;2022-09-12T10:29:48;2.90;;;2.80;;
4646;SDS011;2336;47.822;7.564;2022-09-12T10:32:21;2.50;;;2.40;;
4646;SDS011;2336;47.822;7.564;2022-09-12T10:34:51;2.70;;;2.50;;
4646;SDS011;2336;47.822;7.564;2022-09-12T10:37:22;2.87;;;2.77;;
4646;SDS011;2336;47.822;7.564;2022-09-12T10:39:54;3.00;;;2.90;;
4646;SDS011;2336;47.822;7.564;2022-09-12T10:42:41;2.10;;;2.00;;
4646;SDS011;2336;47.822;7.564;2022-09-12T10:45:21;2.00;;;1.90;;
4646;SDS011;2336;47.822;7.564;2022-09-12T10:47:52;2.53;;;2.43;;
4646;SDS011;2336;47.822;7.564;2022-09-12T10:50:23;2.80;;;2.60;;
4646;SDS011;2336;47.822;7.564;2022-09-12T10:52:53;1.97;;;1.97;;
4646;SDS011;2336;47.822;7.564;2022-09-12T10:55:21;6.83;;;2.00;;
4646;SDS011;2336;47.822;7.564;2022-09-12T10:57:58;2.53;;;2.10;;
4646;SDS011;2336;47.822;7.564;2022-09-12T11:00:34;2.07;;;2.00;;
4646;SDS011;2336;47.822;7.564;2022-09-12T11:03:13;2.67;;;2.47;;
4646;SDS011;2336;47.822;7.564;2022-09-12T11:05:46;2.50;;;2.40;;
4646;SDS011;2336;47.822;7.564;2022-09-12T11:08:31;1.97;;;1.87;;
4646;SDS011;2336;47.822;7.564;2022-09-12T11:11:06;2.10;;;2.00;;
4646;SDS011;2336;47.822;7.564;2022-09-12T11:13:52;2.20;;;2.10;;
4646;SDS011;2336;47.822;7.564;2022-09-12T11:16:32;2.07;;;2.07;;
4646;SDS011;2336;47.822;7.564;2022-09-12T11:19:17;1.50;;;1.50;;
4646;SDS011;2336;47.822;7.564;2022-09-12T11:22:07;2.00;;;1.70;;
4646;SDS011;2336;47.822;7.564;2022-09-12T11:24:48;3.10;;;2.00;;
4646;SDS011;2336;47.822;7.564;2022-09-12T11:27:31;2.00;;;1.90;;
4646;SDS011;2336;47.822;7.564;2022-09-12T11:30:08;3.53;;;1.73;;
4646;SDS011;2336;47.822;7.564;2022-09-12T11:35:31;1.70;;;1.70;;
4646;SDS011;2336;47.822;7.564;2022-09-12T11:41:01;1.60;;;1.50;;
4646;SDS011;2336;47.822;7.564;2022-09-12T11:43:33;1.50;;;1.40;;
4646;SDS011;2336;47.822;7.564;2022-09-12T11:46:05;1.50;;;1.40;;
4646;SDS011;2336;47.822;7.564;2022-09-12T11:48:43;1.60;;;1.50;;
4646;SDS011;2336;47.822;7.564;2022-09-12T11:51:19;1.70;;;1.60;;
4646;SDS011;2336;47.822;7.564;2022-09-12T11:53:58;1.23;;;1.23;;
4646;SDS011;2336;47.822;7.564;2022-09-12T11:56:28;1.60;;;1.50;;
4646;SDS011;2336;47.822;7.564;2022-09-12T11:58:57;1.40;;;1.40;;
4646;SDS011;2336;47.822;7.564;2022-09-12T12:01:30;1.30;;;1.30;;
4646;SDS011;2336;47.822;7.564;2022-09-12T12:04:00;4.03;;;1.37;;
4646;SDS011;2336;47.822;7.564;2022-09-12T12:06:35;1.33;;;1.33;;
4646;SDS011;2336;47.822;7.564;2022-09-12T12:09:09;4.27;;;1.20;;
4646;SDS011;2336;47.822;7.564;2022-09-12T12:11:39;1.40;;;1.30;;
4646;SDS011;2336;47.822;7.564;2022-09-12T12:14:12;1.13;;;1.03;;
4646;SDS011;2336;47.822;7.564;2022-09-12T12:16:42;1.73;;;1.40;;
4646;SDS011;2336;47.822;7.564;2022-09-12T12:19:20;1.20;;;1.20;;
4646;SDS011;2336;47.822;7.564;2022-09-12T12:22:04;1.00;;;1.00;;
4646;SDS011;2336;47.822;7.564;2022-09-12T12:24:33;4.03;;;1.10;;
4646;SDS011;2336;47.822;7.564;2022-09-12T12:27:00;0.93;;;0.93;;
4646;SDS011;2336;47.822;7.564;2022-09-12T12:29:35;1.37;;;1.03;;
4646;SDS011;2336;47.822;7.564;2022-09-12T12:32:22;1.30;;;0.90;;
4646;SDS011;2336;47.822;7.564;2022-09-12T12:34:50;0.87;;;0.87;;
4646;SDS011;2336;47.822;7.564;2022-09-12T12:37:53;0.97;;;0.97;;
4646;SDS011;2336;47.822;7.564;2022-09-12T12:40:25;1.00;;;1.00;;
4646;SDS011;2336;47.822;7.564;2022-09-12T12:42:58;1.20;;;1.20;;
4646;SDS011;2336;47.822;7.564;2022-09-12T12:48:14;1.20;;;1.20;;
4646;SDS011;2336;47.822;7.564;2022-09-12T12:50:44;0.80;;;0.80;;
4646;SDS011;2336;47.822;7.564;2022-09-12T12:53:17;0.70;;;0.70;;
4646;SDS011;2336;47.822;7.564;2022-09-12T12:55:48;0.60;;;0.60;;
4646;SDS011;2336;47.822;7.564;2022-09-12T12:58:22;0.70;;;0.70;;
4646;SDS011;2336;47.822;7.564;2022-09-12T13:01:02;0.70;;;0.70;;
4646;SDS011;2336;47.822;7.564;2022-09-12T13:03:35;0.80;;;0.80;;
4646;SDS011;2336;47.822;7.564;2022-09-12T13:08:35;1.37;;;0.80;;
4646;SDS011;2336;47.822;7.564;2022-09-12T13:11:06;2.10;;;0.60;;
4646;SDS011;2336;47.822;7.564;2022-09-12T13:13:36;0.70;;;0.70;;
4646;SDS011;2336;47.822;7.564;2022-09-12T13:16:07;0.63;;;0.63;;
4646;SDS011;2336;47.822;7.564;2022-09-12T13:18:38;4.10;;;0.90;;
4646;SDS011;2336;47.822;7.564;2022-09-12T13:21:08;0.80;;;0.80;;
4646;SDS011;2336;47.822;7.564;2022-09-12T13:23:39;0.77;;;0.70;;
4646;SDS011;2336;47.822;7.564;2022-09-12T13:26:09;0.97;;;0.80;;
4646;SDS011;2336;47.822;7.564;2022-09-12T13:28:38;0.70;;;0.70;;
4646;SDS011;2336;47.822;7.564;2022-09-12T13:31:07;0.80;;;0.80;;
4646;SDS011;2336;47.822;7.564;2022-09-12T13:33:44;1.03;;;0.80;;
4646;SDS011;2336;47.822;7.564;2022-09-12T13:39:22;0.73;;;0.73;;
4646;SDS011;2336;47.822;7.564;2022-09-12T13:45:03;0.60;;;0.60;;
4646;SDS011;2336;47.822;7.564;2022-09-12T13:47:37;0.87;;;0.70;;
4646;SDS011;2336;47.822;7.564;2022-09-12T13:50:07;0.60;;;0.60;;
4646;SDS011;2336;47.822;7.564;2022-09-12T13:52:44;0.70;;;0.70;;
4646;SDS011;2336;47.822;7.564;2022-09-12T13:55:21;0.60;;;0.60;;
4646;SDS011;2336;47.822;7.564;2022-09-12T13:57:55;1.37;;;0.70;;
4646;SDS011;2336;47.822;7.564;2022-09-12T14:00:24;0.60;;;0.60;;
4646;SDS011;2336;47.822;7.564;2022-09-12T14:02:52;0.60;;;0.60;;
4646;SDS011;2336;47.822;7.564;2022-09-12T14:05:39;0.80;;;0.60;;
4646;SDS011;2336;47.822;7.564;2022-09-12T14:08:08;0.60;;;0.60;;
4646;SDS011;2336;47.822;7.564;2022-09-12T14:10:41;0.53;;;0.53;;
4646;SDS011;2336;47.822;7.564;2022-09-12T14:13:10;0.90;;;0.70;;
4646;SDS011;2336;47.822;7.564;2022-09-12T14:15:43;0.60;;;0.60;;
4646;SDS011;2336;47.822;7.564;2022-09-12T14:18:20;0.90;;;0.90;;
4646;SDS011;2336;47.822;7.564;2022-09-12T14:20:48;1.07;;;0.60;;
4646;SDS011;2336;47.822;7.564;2022-09-12T14:23:20;0.80;;;0.80;;
4646;SDS011;2336;47.822;7.564;2022-09-12T14:25:53;1.83;;;0.63;;
4646;SDS011;2336;47.822;7.564;2022-09-12T14:28:22;0.77;;;0.63;;
4646;SDS011;2336;47.822;7.564;2022-09-12T14:30:57;1.17;;;0.60;;
4646;SDS011;2336;47.822;7.564;2022-09-12T14:33:25;1.40;;;0.70;;
4646;SDS011;2336;47.822;7.564;2022-09-12T14:36:05;4.20;;;0.70;;
4646;SDS011;2336;47.822;7.564;2022-09-12T14:38:35;0.70;;;0.70;;
4646;SDS011;2336;47.822;7.564;2022-09-12T14:41:07;0.60;;;0.60;;
4646;SDS011;2336;47.822;7.564;2022-09-12T14:43:36;0.70;;;0.70;;
4646;SDS011;2336;47.822;7.564;2022-09-12T14:46:05;0.60;;;0.60;;
4646;SDS011;2336;47.822;7.564;2022-09-12T14:48:43;0.87;;;0.60;;
4646;SDS011;2336;47.822;7.564;2022-09-12T14:51:16;0.70;;;0.70;;
4646;SDS011;2336;47.822;7.564;2022-09-12T14:53:47;0.60;;;0.60;;
4646;SDS011;2336;47.822;7.564;2022-09-12T14:56:15;0.50;;;0.50;;
4646;SDS011;2336;47.822;7.564;2022-09-12T14:58:45;1.83;;;0.60;;
4646;SDS011;2336;47.822;7.564;2022-09-12T15:01:24;0.60;;;0.60;;
4646;SDS011;2336;47.822;7.564;2022-09-12T15:03:52;0.60;;;0.60;;
4646;SDS011;2336;47.822;7.564;2022-09-12T15:06:22;0.63;;;0.60;;
4646;SDS011;2336;47.822;7.564;2022-09-12T15:08:52;0.63;;;0.63;;
4646;SDS011;2336;47.822;7.564;2022-09-12T15:11:21;1.37;;;0.50;;
4646;SDS011;2336;47.822;7.564;2022-09-12T15:13:47;1.43;;;0.60;;
4646;SDS011;2336;47.822;7.564;2022-09-12T15:16:14;2.60;;;0.70;;
4646;SDS011;2336;47.822;7.564;2022-09-12T15:18:41;3.50;;;0.70;;
4646;SDS011;2336;47.822;7.564;2022-09-12T15:21:10;0.70;;;0.60;;
4646;SDS011;2336;47.822;7.564;2022-09-12T15:23:42;0.53;;;0.53;;
4646;SDS011;2336;47.822;7.564;2022-09-12T15:26:11;0.70;;;0.70;;
4646;SDS011;2336;47.822;7.564;2022-09-12T15:28:40;4.30;;;0.60;;
4646;SDS011;2336;47.822;7.564;2022-09-12T15:31:11;0.70;;;0.70;;
4646;SDS011;2336;47.822;7.564;2022-09-12T15:33:49;0.60;;;0.60;;
4646;SDS011;2336;47.822;7.564;2022-09-12T15:36:16;1.63;;;0.60;;
4646;SDS011;2336;47.822;7.564;2022-09-12T15:38:45;1.10;;;0.60;;
4646;SDS011;2336;47.822;7.564;2022-09-12T15:41:14;1.10;;;0.60;;
4646;SDS011;2336;47.822;7.564;2022-09-12T15:43:44;0.90;;;0.60;;
4646;SDS011;2336;47.822;7.564;2022-09-12T15:46:12;0.60;;;0.60;;
4646;SDS011;2336;47.822;7.564;2022-09-12T15:48:41;0.67;;;0.60;;
4646;SDS011;2336;47.822;7.564;2022-09-12T15:51:09;0.87;;;0.67;;
4646;SDS011;2336;47.822;7.564;2022-09-12T15:53:37;0.60;;;0.60;;
4646;SDS011;2336;47.822;7.564;2022-09-12T15:56:04;0.70;;;0.50;;
4646;SDS011;2336;47.822;7.564;2022-09-12T15:58:31;1.83;;;0.57;;
4646;SDS011;2336;47.822;7.564;2022-09-12T16:01:00;1.63;;;0.60;;
4646;SDS011;2336;47.822;7.564;2022-09-12T16:03:27;0.50;;;0.50;;